sensor_id;sensor_type;location;lat;lon;timestamp;P1;durP1;ratioP1;P2;durP2;ratioP2
12631;SDS011;6381;45.748;12.106;2023-09-18T00:00:00;20.73;;;18.73;;
12631;SDS011;6381;45.748;12.106;2023-09-18T00:02:33;19.80;;;18.02;;
12631;SDS011;6381;45.748;12.106;2023-09-18T00:05:03;20.67;;;18.88;;
12631;SDS011;6381;45.748;12.106;2023-09-18T00:07:33;20.25;;;18.35;;
12631;SDS011;6381;45.748;12.106;2023-09-18T00:10:05;21.05;;;19.05;;
12631;SDS011;6381;45.748;12.106;2023-09-18T00:12:36;20.42;;;18.40;;
12631;SDS011;6381;45.748;12.106;2023-09-18T00:15:06;19.60;;;17.88;;
12631;SDS011;6381;45.748;12.106;2023-09-18T00:17:36;20.05;;;18.05;;
12631;SDS011;6381;45.748;12.106;2023-09-18T00:20:06;19.20;;;17.42;;
12631;SDS011;6381;45.748;12.106;2023-09-18T00:22:37;21.00;;;18.90;;
12631;SDS011;6381;45.748;12.106;2023-09-18T00:25:08;20.55;;;18.58;;
12631;SDS011;6381;45.748;12.106;2023-09-18T00:27:38;19.08;;;17.30;;
12631;SDS011;6381;45.748;12.106;2023-09-18T00:30:08;19.42;;;17.60;;
12631;SDS011;6381;45.748;12.106;2023-09-18T00:32:38;18.98;;;17.17;;
12631;SDS011;6381;45.748;12.106;2023-09-18T00:35:08;20.02;;;18.13;;
12631;SDS011;6381;45.748;12.106;2023-09-18T00:37:38;19.13;;;17.17;;
12631;SDS011;6381;45.748;12.106;2023-09-18T00:40:10;20.88;;;19.00;;
12631;SDS011;6381;45.748;12.106;2023-09-18T00:42:41;21.02;;;19.13;;
12631;SDS011;6381;45.748;12.106;2023-09-18T00:45:10;20.35;;;18.40;;
12631;SDS011;6381;45.748;12.106;2023-09-18T00:47:40;21.35;;;19.35;;
12631;SDS011;6381;45.748;12.106;2023-09-18T00:50:10;19.73;;;17.73;;
12631;SDS011;6381;45.748;12.106;2023-09-18T00:52:42;19.25;;;17.45;;
12631;SDS011;6381;45.748;12.106;2023-09-18T00:55:14;19.35;;;17.50;;
12631;SDS011;6381;45.748;12.106;2023-09-18T00:57:45;19.20;;;17.48;;
12631;SDS011;6381;45.748;12.106;2023-09-18T01:00:16;19.52;;;17.73;;
12631;SDS011;6381;45.748;12.106;2023-09-18T01:02:46;19.00;;;17.17;;
12631;SDS011;6381;45.748;12.106;2023-09-18T01:05:16;19.17;;;17.38;;
12631;SDS011;6381;45.748;12.106;2023-09-18T01:07:47;19.00;;;17.23;;
12631;SDS011;6381;45.748;12.106;2023-09-18T01:10:18;19.83;;;17.92;;
12631;SDS011;6381;45.748;12.106;2023-09-18T01:12:55;19.25;;;17.40;;
12631;SDS011;6381;45.748;12.106;2023-09-18T01:15:33;18.58;;;16.88;;
12631;SDS011;6381;45.748;12.106;2023-09-18T01:18:11;19.27;;;17.48;;
12631;SDS011;6381;45.748;12.106;2023-09-18T01:20:41;18.40;;;16.70;;
12631;SDS011;6381;45.748;12.106;2023-09-18T01:23:15;18.77;;;16.98;;
12631;SDS011;6381;45.748;12.106;2023-09-18T01:25:44;19.38;;;17.67;;
12631;SDS011;6381;45.748;12.106;2023-09-18T01:28:14;19.10;;;17.40;;
12631;SDS011;6381;45.748;12.106;2023-09-18T01:30:44;19.50;;;17.70;;
12631;SDS011;6381;45.748;12.106;2023-09-18T01:33:14;19.70;;;17.80;;
12631;SDS011;6381;45.748;12.106;2023-09-18T01:35:44;19.48;;;17.63;;
12631;SDS011;6381;45.748;12.106;2023-09-18T01:38:16;19.25;;;17.35;;
12631;SDS011;6381;45.748;12.106;2023-09-18T01:40:47;21.40;;;19.25;;
12631;SDS011;6381;45.748;12.106;2023-09-18T01:43:17;20.10;;;18.15;;
12631;SDS011;6381;45.748;12.106;2023-09-18T01:45:47;20.67;;;18.77;;
12631;SDS011;6381;45.748;12.106;2023-09-18T01:48:18;20.23;;;18.23;;
12631;SDS011;6381;45.748;12.106;2023-09-18T01:50:48;19.50;;;17.60;;
12631;SDS011;6381;45.748;12.106;2023-09-18T01:53:20;20.35;;;18.38;;
12631;SDS011;6381;45.748;12.106;2023-09-18T01:55:50;20.38;;;18.50;;
12631;SDS011;6381;45.748;12.106;2023-09-18T01:58:20;20.20;;;18.33;;
12631;SDS011;6381;45.748;12.106;2023-09-18T02:00:50;21.98;;;18.58;;
12631;SDS011;6381;45.748;12.106;2023-09-18T02:03:21;21.17;;;19.02;;
12631;SDS011;6381;45.748;12.106;2023-09-18T02:06:10;19.60;;;17.80;;
12631;SDS011;6381;45.748;12.106;2023-09-18T02:08:42;20.63;;;18.85;;
12631;SDS011;6381;45.748;12.106;2023-09-18T02:11:12;20.77;;;18.70;;
12631;SDS011;6381;45.748;12.106;2023-09-18T02:13:45;19.77;;;17.80;;
12631;SDS011;6381;45.748;12.106;2023-09-18T02:16:16;20.15;;;18.30;;
12631;SDS011;6381;45.748;12.106;2023-09-18T02:18:50;21.25;;;19.35;;
12631;SDS011;6381;45.748;12.106;2023-09-18T02:21:20;20.10;;;18.20;;
12631;SDS011;6381;45.748;12.106;2023-09-18T02:23:52;20.58;;;18.45;;
12631;SDS011;6381;45.748;12.106;2023-09-18T02:26:23;21.73;;;19.73;;
12631;SDS011;6381;45.748;12.106;2023-09-18T02:28:54;22.10;;;19.90;;
12631;SDS011;6381;45.748;12.106;2023-09-18T02:31:27;21.95;;;19.85;;
12631;SDS011;6381;45.748;12.106;2023-09-18T02:33:57;20.65;;;18.70;;
12631;SDS011;6381;45.748;12.106;2023-09-18T02:36:27;21.17;;;19.23;;
12631;SDS011;6381;45.748;12.106;2023-09-18T02:38:58;20.75;;;18.88;;
12631;SDS011;6381;45.748;12.106;2023-09-18T02:41:28;21.40;;;19.45;;
12631;SDS011;6381;45.748;12.106;2023-09-18T02:43:58;20.98;;;18.98;;
12631;SDS011;6381;45.748;12.106;2023-09-18T02:46:27;21.75;;;19.67;;
12631;SDS011;6381;45.748;12.106;2023-09-18T02:48:58;20.83;;;18.92;;
12631;SDS011;6381;45.748;12.106;2023-09-18T02:51:29;20.98;;;18.77;;
12631;SDS011;6381;45.748;12.106;2023-09-18T02:54:00;21.38;;;19.38;;
12631;SDS011;6381;45.748;12.106;2023-09-18T02:56:31;21.45;;;19.42;;
12631;SDS011;6381;45.748;12.106;2023-09-18T02:59:01;20.90;;;18.88;;
12631;SDS011;6381;45.748;12.106;2023-09-18T03:01:31;20.35;;;18.52;;
12631;SDS011;6381;45.748;12.106;2023-09-18T03:04:02;21.95;;;19.75;;
12631;SDS011;6381;45.748;12.106;2023-09-18T03:06:33;21.42;;;19.35;;
12631;SDS011;6381;45.748;12.106;2023-09-18T03:09:04;21.17;;;19.27;;
12631;SDS011;6381;45.748;12.106;2023-09-18T03:11:34;20.30;;;18.45;;
12631;SDS011;6381;45.748;12.106;2023-09-18T03:14:04;20.25;;;18.33;;
12631;SDS011;6381;45.748;12.106;2023-09-18T03:16:34;20.35;;;18.42;;
12631;SDS011;6381;45.748;12.106;2023-09-18T03:19:04;20.27;;;18.38;;
12631;SDS011;6381;45.748;12.106;2023-09-18T03:21:35;20.13;;;18.42;;
12631;SDS011;6381;45.748;12.106;2023-09-18T03:24:07;22.00;;;19.80;;
12631;SDS011;6381;45.748;12.106;2023-09-18T03:26:37;23.15;;;20.83;;
12631;SDS011;6381;45.748;12.106;2023-09-18T03:29:07;22.98;;;20.70;;
12631;SDS011;6381;45.748;12.106;2023-09-18T03:31:37;23.67;;;21.35;;
12631;SDS011;6381;45.748;12.106;2023-09-18T03:34:07;23.05;;;20.85;;
12631;SDS011;6381;45.748;12.106;2023-09-18T03:36:37;24.05;;;21.73;;
12631;SDS011;6381;45.748;12.106;2023-09-18T03:39:11;23.33;;;20.95;;
12631;SDS011;6381;45.748;12.106;2023-09-18T03:41:41;21.90;;;19.88;;
12631;SDS011;6381;45.748;12.106;2023-09-18T03:44:11;25.25;;;21.48;;
12631;SDS011;6381;45.748;12.106;2023-09-18T03:46:42;23.52;;;21.40;;
12631;SDS011;6381;45.748;12.106;2023-09-18T03:49:12;22.17;;;20.02;;
12631;SDS011;6381;45.748;12.106;2023-09-18T03:51:44;22.70;;;20.60;;
12631;SDS011;6381;45.748;12.106;2023-09-18T03:54:16;21.17;;;19.27;;
12631;SDS011;6381;45.748;12.106;2023-09-18T03:56:46;21.85;;;19.80;;
12631;SDS011;6381;45.748;12.106;2023-09-18T03:59:18;20.40;;;18.63;;
12631;SDS011;6381;45.748;12.106;2023-09-18T04:01:50;21.27;;;19.35;;
12631;SDS011;6381;45.748;12.106;2023-09-18T04:04:20;21.45;;;19.45;;
12631;SDS011;6381;45.748;12.106;2023-09-18T04:06:53;22.00;;;19.77;;
12631;SDS011;6381;45.748;12.106;2023-09-18T04:09:25;23.08;;;20.88;;
12631;SDS011;6381;45.748;12.106;2023-09-18T04:11:56;25.02;;;22.42;;
12631;SDS011;6381;45.748;12.106;2023-09-18T04:14:26;22.85;;;20.75;;
12631;SDS011;6381;45.748;12.106;2023-09-18T04:16:56;24.75;;;22.35;;
12631;SDS011;6381;45.748;12.106;2023-09-18T04:19:27;23.58;;;21.17;;
12631;SDS011;6381;45.748;12.106;2023-09-18T04:21:57;24.35;;;21.85;;
12631;SDS011;6381;45.748;12.106;2023-09-18T04:24:30;23.52;;;21.42;;
12631;SDS011;6381;45.748;12.106;2023-09-18T04:27:00;24.58;;;22.05;;
12631;SDS011;6381;45.748;12.106;2023-09-18T04:29:32;23.35;;;21.00;;
12631;SDS011;6381;45.748;12.106;2023-09-18T04:32:03;24.42;;;22.02;;
12631;SDS011;6381;45.748;12.106;2023-09-18T04:34:34;24.25;;;21.88;;
12631;SDS011;6381;45.748;12.106;2023-09-18T04:37:03;24.20;;;21.75;;
12631;SDS011;6381;45.748;12.106;2023-09-18T04:39:36;24.73;;;22.33;;
12631;SDS011;6381;45.748;12.106;2023-09-18T04:42:06;24.67;;;22.35;;
12631;SDS011;6381;45.748;12.106;2023-09-18T04:44:36;25.40;;;22.92;;
12631;SDS011;6381;45.748;12.106;2023-09-18T04:47:06;25.83;;;23.38;;
12631;SDS011;6381;45.748;12.106;2023-09-18T04:49:36;26.25;;;23.38;;
12631;SDS011;6381;45.748;12.106;2023-09-18T04:52:06;23.73;;;21.40;;
12631;SDS011;6381;45.748;12.106;2023-09-18T04:54:37;26.60;;;23.73;;
12631;SDS011;6381;45.748;12.106;2023-09-18T04:57:08;26.90;;;24.25;;
12631;SDS011;6381;45.748;12.106;2023-09-18T04:59:41;24.38;;;21.77;;
12631;SDS011;6381;45.748;12.106;2023-09-18T05:02:14;24.98;;;22.50;;
12631;SDS011;6381;45.748;12.106;2023-09-18T05:04:44;25.35;;;22.85;;
12631;SDS011;6381;45.748;12.106;2023-09-18T05:07:14;26.08;;;23.55;;
12631;SDS011;6381;45.748;12.106;2023-09-18T05:09:46;25.02;;;22.42;;
12631;SDS011;6381;45.748;12.106;2023-09-18T05:12:15;25.42;;;22.88;;
12631;SDS011;6381;45.748;12.106;2023-09-18T05:14:45;26.30;;;23.58;;
12631;SDS011;6381;45.748;12.106;2023-09-18T05:17:15;28.77;;;25.60;;
12631;SDS011;6381;45.748;12.106;2023-09-18T05:19:46;25.65;;;23.20;;
12631;SDS011;6381;45.748;12.106;2023-09-18T05:22:16;24.80;;;22.35;;
12631;SDS011;6381;45.748;12.106;2023-09-18T05:24:47;25.60;;;23.08;;
12631;SDS011;6381;45.748;12.106;2023-09-18T05:27:18;29.00;;;24.70;;
12631;SDS011;6381;45.748;12.106;2023-09-18T05:29:53;25.20;;;22.77;;
12631;SDS011;6381;45.748;12.106;2023-09-18T05:32:23;26.73;;;24.13;;
12631;SDS011;6381;45.748;12.106;2023-09-18T05:34:53;29.60;;;26.50;;
12631;SDS011;6381;45.748;12.106;2023-09-18T05:37:23;26.00;;;23.50;;
12631;SDS011;6381;45.748;12.106;2023-09-18T05:39:55;29.45;;;26.42;;
12631;SDS011;6381;45.748;12.106;2023-09-18T05:42:25;30.05;;;27.15;;
12631;SDS011;6381;45.748;12.106;2023-09-18T05:44:54;28.33;;;25.67;;
12631;SDS011;6381;45.748;12.106;2023-09-18T05:47:24;29.30;;;26.30;;
12631;SDS011;6381;45.748;12.106;2023-09-18T05:49:57;29.50;;;26.50;;
12631;SDS011;6381;45.748;12.106;2023-09-18T05:52:27;31.63;;;28.20;;
12631;SDS011;6381;45.748;12.106;2023-09-18T05:54:58;31.02;;;28.02;;
12631;SDS011;6381;45.748;12.106;2023-09-18T05:57:31;29.40;;;26.38;;
12631;SDS011;6381;45.748;12.106;2023-09-18T06:00:02;29.05;;;26.05;;
12631;SDS011;6381;45.748;12.106;2023-09-18T06:02:38;28.55;;;25.75;;
12631;SDS011;6381;45.748;12.106;2023-09-18T06:05:09;28.38;;;25.45;;
12631;SDS011;6381;45.748;12.106;2023-09-18T06:07:43;28.75;;;25.70;;
12631;SDS011;6381;45.748;12.106;2023-09-18T06:10:18;26.40;;;23.60;;
12631;SDS011;6381;45.748;12.106;2023-09-18T06:12:48;28.67;;;24.77;;
12631;SDS011;6381;45.748;12.106;2023-09-18T06:15:18;27.30;;;24.55;;
12631;SDS011;6381;45.748;12.106;2023-09-18T06:17:49;25.90;;;23.17;;
12631;SDS011;6381;45.748;12.106;2023-09-18T06:20:19;26.23;;;23.73;;
12631;SDS011;6381;45.748;12.106;2023-09-18T06:22:50;25.92;;;23.45;;
12631;SDS011;6381;45.748;12.106;2023-09-18T06:25:22;23.70;;;21.40;;
12631;SDS011;6381;45.748;12.106;2023-09-18T06:27:51;23.90;;;21.05;;
12631;SDS011;6381;45.748;12.106;2023-09-18T06:30:21;24.08;;;21.48;;
12631;SDS011;6381;45.748;12.106;2023-09-18T06:32:52;24.98;;;22.48;;
12631;SDS011;6381;45.748;12.106;2023-09-18T06:35:22;23.95;;;21.55;;
12631;SDS011;6381;45.748;12.106;2023-09-18T06:37:52;21.75;;;19.45;;
12631;SDS011;6381;45.748;12.106;2023-09-18T06:40:27;23.85;;;21.45;;
12631;SDS011;6381;45.748;12.106;2023-09-18T06:43:01;22.60;;;20.30;;
12631;SDS011;6381;45.748;12.106;2023-09-18T06:45:31;23.20;;;21.10;;
12631;SDS011;6381;45.748;12.106;2023-09-18T06:48:01;23.38;;;20.88;;
12631;SDS011;6381;45.748;12.106;2023-09-18T06:50:31;22.92;;;20.83;;
12631;SDS011;6381;45.748;12.106;2023-09-18T06:53:04;25.13;;;22.55;;
12631;SDS011;6381;45.748;12.106;2023-09-18T06:55:36;22.13;;;19.95;;
12631;SDS011;6381;45.748;12.106;2023-09-18T06:58:06;23.75;;;21.45;;
12631;SDS011;6381;45.748;12.106;2023-09-18T07:00:37;22.77;;;20.48;;
12631;SDS011;6381;45.748;12.106;2023-09-18T07:03:10;21.88;;;19.70;;
12631;SDS011;6381;45.748;12.106;2023-09-18T07:05:41;21.13;;;19.17;;
12631;SDS011;6381;45.748;12.106;2023-09-18T07:08:11;21.35;;;19.40;;
12631;SDS011;6381;45.748;12.106;2023-09-18T07:10:44;20.30;;;18.35;;
12631;SDS011;6381;45.748;12.106;2023-09-18T07:13:14;18.95;;;17.17;;
12631;SDS011;6381;45.748;12.106;2023-09-18T07:15:44;18.83;;;17.13;;
12631;SDS011;6381;45.748;12.106;2023-09-18T07:18:15;17.52;;;15.82;;
12631;SDS011;6381;45.748;12.106;2023-09-18T07:20:45;19.50;;;17.55;;
12631;SDS011;6381;45.748;12.106;2023-09-18T07:23:15;18.17;;;16.48;;
12631;SDS011;6381;45.748;12.106;2023-09-18T07:25:46;19.48;;;17.55;;
12631;SDS011;6381;45.748;12.106;2023-09-18T07:28:17;20.75;;;18.60;;
12631;SDS011;6381;45.748;12.106;2023-09-18T07:30:47;20.52;;;18.60;;
12631;SDS011;6381;45.748;12.106;2023-09-18T07:33:16;21.48;;;19.27;;
12631;SDS011;6381;45.748;12.106;2023-09-18T07:35:47;21.20;;;19.20;;
12631;SDS011;6381;45.748;12.106;2023-09-18T07:38:18;21.48;;;19.38;;
12631;SDS011;6381;45.748;12.106;2023-09-18T07:40:50;23.10;;;20.90;;
12631;SDS011;6381;45.748;12.106;2023-09-18T07:43:23;20.50;;;18.60;;
12631;SDS011;6381;45.748;12.106;2023-09-18T07:45:53;22.35;;;20.15;;
12631;SDS011;6381;45.748;12.106;2023-09-18T07:48:24;21.60;;;19.55;;
12631;SDS011;6381;45.748;12.106;2023-09-18T07:50:54;20.80;;;18.65;;
12631;SDS011;6381;45.748;12.106;2023-09-18T07:53:24;21.17;;;19.20;;
12631;SDS011;6381;45.748;12.106;2023-09-18T07:55:57;23.05;;;20.65;;
12631;SDS011;6381;45.748;12.106;2023-09-18T07:58:32;23.88;;;20.90;;
12631;SDS011;6381;45.748;12.106;2023-09-18T08:01:05;21.40;;;19.35;;
12631;SDS011;6381;45.748;12.106;2023-09-18T08:03:36;22.05;;;19.85;;
12631;SDS011;6381;45.748;12.106;2023-09-18T08:06:06;23.35;;;20.95;;
12631;SDS011;6381;45.748;12.106;2023-09-18T08:08:36;23.27;;;20.88;;
12631;SDS011;6381;45.748;12.106;2023-09-18T08:11:08;22.38;;;20.27;;
12631;SDS011;6381;45.748;12.106;2023-09-18T08:13:38;21.38;;;19.27;;
12631;SDS011;6381;45.748;12.106;2023-09-18T08:16:08;21.73;;;19.58;;
12631;SDS011;6381;45.748;12.106;2023-09-18T08:18:38;22.52;;;20.27;;
12631;SDS011;6381;45.748;12.106;2023-09-18T08:21:09;22.05;;;19.88;;
12631;SDS011;6381;45.748;12.106;2023-09-18T08:23:40;22.58;;;20.15;;
12631;SDS011;6381;45.748;12.106;2023-09-18T08:26:14;21.98;;;19.65;;
12631;SDS011;6381;45.748;12.106;2023-09-18T08:28:47;22.05;;;19.95;;
12631;SDS011;6381;45.748;12.106;2023-09-18T08:31:22;22.63;;;19.60;;
12631;SDS011;6381;45.748;12.106;2023-09-18T08:33:53;20.23;;;18.23;;
12631;SDS011;6381;45.748;12.106;2023-09-18T08:36:23;21.35;;;19.25;;
12631;SDS011;6381;45.748;12.106;2023-09-18T08:38:53;24.55;;;19.13;;
12631;SDS011;6381;45.748;12.106;2023-09-18T08:41:25;25.85;;;20.75;;
12631;SDS011;6381;45.748;12.106;2023-09-18T08:43:58;23.58;;;21.08;;
12631;SDS011;6381;45.748;12.106;2023-09-18T08:46:31;22.58;;;20.27;;
12631;SDS011;6381;45.748;12.106;2023-09-18T08:49:01;23.50;;;19.33;;
12631;SDS011;6381;45.748;12.106;2023-09-18T08:51:32;21.10;;;18.73;;
12631;SDS011;6381;45.748;12.106;2023-09-18T08:54:04;21.63;;;19.00;;
12631;SDS011;6381;45.748;12.106;2023-09-18T08:56:36;21.90;;;19.73;;
12631;SDS011;6381;45.748;12.106;2023-09-18T08:59:06;24.02;;;18.92;;
12631;SDS011;6381;45.748;12.106;2023-09-18T09:01:36;21.98;;;18.30;;
12631;SDS011;6381;45.748;12.106;2023-09-18T09:04:05;27.52;;;19.92;;
12631;SDS011;6381;45.748;12.106;2023-09-18T09:06:35;22.95;;;19.77;;
12631;SDS011;6381;45.748;12.106;2023-09-18T09:09:06;21.45;;;19.02;;
12631;SDS011;6381;45.748;12.106;2023-09-18T09:11:38;25.05;;;18.23;;
12631;SDS011;6381;45.748;12.106;2023-09-18T09:14:08;21.02;;;18.83;;
12631;SDS011;6381;45.748;12.106;2023-09-18T09:16:46;22.25;;;20.00;;
12631;SDS011;6381;45.748;12.106;2023-09-18T09:19:17;19.83;;;17.77;;
12631;SDS011;6381;45.748;12.106;2023-09-18T09:21:47;24.08;;;19.63;;
12631;SDS011;6381;45.748;12.106;2023-09-18T09:24:19;24.00;;;19.00;;
12631;SDS011;6381;45.748;12.106;2023-09-18T09:27:07;22.00;;;18.50;;
12631;SDS011;6381;45.748;12.106;2023-09-18T09:29:37;21.48;;;18.00;;
12631;SDS011;6381;45.748;12.106;2023-09-18T09:32:15;20.50;;;17.38;;
12631;SDS011;6381;45.748;12.106;2023-09-18T09:34:47;19.25;;;17.25;;
12631;SDS011;6381;45.748;12.106;2023-09-18T09:37:18;18.20;;;16.45;;
12631;SDS011;6381;45.748;12.106;2023-09-18T09:39:48;17.63;;;15.68;;
12631;SDS011;6381;45.748;12.106;2023-09-18T09:42:20;19.55;;;16.80;;
12631;SDS011;6381;45.748;12.106;2023-09-18T09:45:00;22.55;;;18.08;;
12631;SDS011;6381;45.748;12.106;2023-09-18T09:47:33;19.52;;;17.02;;
12631;SDS011;6381;45.748;12.106;2023-09-18T09:50:07;21.13;;;15.68;;
12631;SDS011;6381;45.748;12.106;2023-09-18T09:52:41;18.67;;;16.40;;
12631;SDS011;6381;45.748;12.106;2023-09-18T09:55:21;18.08;;;16.15;;
12631;SDS011;6381;45.748;12.106;2023-09-18T09:57:55;19.38;;;16.20;;
12631;SDS011;6381;45.748;12.106;2023-09-18T10:00:29;19.25;;;16.23;;
12631;SDS011;6381;45.748;12.106;2023-09-18T10:03:06;19.27;;;15.88;;
12631;SDS011;6381;45.748;12.106;2023-09-18T10:05:37;19.90;;;17.48;;
12631;SDS011;6381;45.748;12.106;2023-09-18T10:08:10;23.90;;;16.67;;
12631;SDS011;6381;45.748;12.106;2023-09-18T10:10:43;22.52;;;16.17;;
12631;SDS011;6381;45.748;12.106;2023-09-18T10:13:18;20.02;;;16.73;;
12631;SDS011;6381;45.748;12.106;2023-09-18T10:15:51;19.23;;;15.30;;
12631;SDS011;6381;45.748;12.106;2023-09-18T10:18:26;19.17;;;17.13;;
12631;SDS011;6381;45.748;12.106;2023-09-18T10:21:01;17.05;;;15.25;;
12631;SDS011;6381;45.748;12.106;2023-09-18T10:23:46;16.85;;;15.30;;
12631;SDS011;6381;45.748;12.106;2023-09-18T10:26:23;17.20;;;15.40;;
12631;SDS011;6381;45.748;12.106;2023-09-18T10:28:59;19.40;;;17.40;;
12631;SDS011;6381;45.748;12.106;2023-09-18T10:31:32;18.27;;;16.33;;
12631;SDS011;6381;45.748;12.106;2023-09-18T10:34:03;17.48;;;15.82;;
12631;SDS011;6381;45.748;12.106;2023-09-18T10:36:35;18.27;;;16.27;;
12631;SDS011;6381;45.748;12.106;2023-09-18T10:39:06;17.83;;;16.13;;
12631;SDS011;6381;45.748;12.106;2023-09-18T10:41:40;19.90;;;16.83;;
12631;SDS011;6381;45.748;12.106;2023-09-18T10:44:14;17.58;;;15.80;;
12631;SDS011;6381;45.748;12.106;2023-09-18T10:46:45;16.95;;;15.15;;
12631;SDS011;6381;45.748;12.106;2023-09-18T10:49:16;17.25;;;14.57;;
12631;SDS011;6381;45.748;12.106;2023-09-18T10:51:47;16.45;;;14.75;;
12631;SDS011;6381;45.748;12.106;2023-09-18T10:54:19;15.13;;;13.73;;
12631;SDS011;6381;45.748;12.106;2023-09-18T10:56:53;17.02;;;15.30;;
12631;SDS011;6381;45.748;12.106;2023-09-18T10:59:27;17.08;;;15.27;;
12631;SDS011;6381;45.748;12.106;2023-09-18T11:02:02;16.23;;;14.60;;
12631;SDS011;6381;45.748;12.106;2023-09-18T11:04:33;14.88;;;13.48;;
12631;SDS011;6381;45.748;12.106;2023-09-18T11:07:04;18.60;;;16.65;;
12631;SDS011;6381;45.748;12.106;2023-09-18T11:09:41;18.65;;;16.88;;
12631;SDS011;6381;45.748;12.106;2023-09-18T11:12:14;19.20;;;16.23;;
12631;SDS011;6381;45.748;12.106;2023-09-18T11:14:48;17.88;;;15.27;;
12631;SDS011;6381;45.748;12.106;2023-09-18T11:17:31;20.05;;;17.52;;
12631;SDS011;6381;45.748;12.106;2023-09-18T11:20:06;20.05;;;16.70;;
12631;SDS011;6381;45.748;12.106;2023-09-18T11:22:39;18.17;;;16.45;;
12631;SDS011;6381;45.748;12.106;2023-09-18T11:28:22;23.20;;;17.98;;
12631;SDS011;6381;45.748;12.106;2023-09-18T11:30:56;21.35;;;19.13;;
12631;SDS011;6381;45.748;12.106;2023-09-18T11:33:35;22.58;;;19.00;;
12631;SDS011;6381;45.748;12.106;2023-09-18T11:36:06;24.00;;;19.55;;
12631;SDS011;6381;45.748;12.106;2023-09-18T11:38:52;22.33;;;20.00;;
12631;SDS011;6381;45.748;12.106;2023-09-18T11:41:26;22.58;;;18.55;;
12631;SDS011;6381;45.748;12.106;2023-09-18T11:47:05;21.17;;;18.98;;
12631;SDS011;6381;45.748;12.106;2023-09-18T11:49:58;21.42;;;19.33;;
12631;SDS011;6381;45.748;12.106;2023-09-18T11:52:38;23.35;;;20.83;;
12631;SDS011;6381;45.748;12.106;2023-09-18T11:55:08;24.58;;;22.10;;
12631;SDS011;6381;45.748;12.106;2023-09-18T11:57:39;20.50;;;18.42;;
12631;SDS011;6381;45.748;12.106;2023-09-18T12:00:18;21.05;;;18.38;;
12631;SDS011;6381;45.748;12.106;2023-09-18T12:02:52;20.92;;;18.92;;
12631;SDS011;6381;45.748;12.106;2023-09-18T12:05:23;19.45;;;17.50;;
12631;SDS011;6381;45.748;12.106;2023-09-18T12:07:53;20.23;;;18.13;;
12631;SDS011;6381;45.748;12.106;2023-09-18T12:10:23;20.27;;;18.25;;
12631;SDS011;6381;45.748;12.106;2023-09-18T12:12:55;22.67;;;20.45;;
12631;SDS011;6381;45.748;12.106;2023-09-18T12:15:25;21.23;;;19.10;;
12631;SDS011;6381;45.748;12.106;2023-09-18T12:17:58;20.02;;;17.98;;
12631;SDS011;6381;45.748;12.106;2023-09-18T12:20:34;22.38;;;17.77;;
12631;SDS011;6381;45.748;12.106;2023-09-18T12:23:07;19.92;;;18.02;;
12631;SDS011;6381;45.748;12.106;2023-09-18T12:25:38;20.05;;;18.05;;
12631;SDS011;6381;45.748;12.106;2023-09-18T12:28:08;23.63;;;18.52;;
12631;SDS011;6381;45.748;12.106;2023-09-18T12:30:38;19.60;;;17.48;;
12631;SDS011;6381;45.748;12.106;2023-09-18T12:33:10;19.90;;;18.02;;
12631;SDS011;6381;45.748;12.106;2023-09-18T12:35:41;19.27;;;17.25;;
12631;SDS011;6381;45.748;12.106;2023-09-18T12:38:14;20.75;;;18.67;;
12631;SDS011;6381;45.748;12.106;2023-09-18T12:40:47;18.60;;;16.70;;
12631;SDS011;6381;45.748;12.106;2023-09-18T12:43:18;19.33;;;17.42;;
12631;SDS011;6381;45.748;12.106;2023-09-18T12:45:50;18.45;;;16.60;;
12631;SDS011;6381;45.748;12.106;2023-09-18T12:48:27;19.30;;;17.23;;
12631;SDS011;6381;45.748;12.106;2023-09-18T12:51:04;17.92;;;16.15;;
12631;SDS011;6381;45.748;12.106;2023-09-18T12:53:35;19.70;;;17.65;;
12631;SDS011;6381;45.748;12.106;2023-09-18T12:56:05;17.02;;;15.38;;
12631;SDS011;6381;45.748;12.106;2023-09-18T12:58:36;18.13;;;16.23;;
12631;SDS011;6381;45.748;12.106;2023-09-18T13:01:26;19.75;;;17.77;;
12631;SDS011;6381;45.748;12.106;2023-09-18T13:03:58;19.02;;;17.17;;
12631;SDS011;6381;45.748;12.106;2023-09-18T13:06:33;19.98;;;17.90;;
12631;SDS011;6381;45.748;12.106;2023-09-18T13:09:16;18.60;;;16.63;;
12631;SDS011;6381;45.748;12.106;2023-09-18T13:11:53;18.02;;;16.27;;
12631;SDS011;6381;45.748;12.106;2023-09-18T13:14:24;19.08;;;17.05;;
12631;SDS011;6381;45.748;12.106;2023-09-18T13:17:00;19.65;;;16.80;;
12631;SDS011;6381;45.748;12.106;2023-09-18T13:19:33;17.73;;;15.85;;
12631;SDS011;6381;45.748;12.106;2023-09-18T13:22:04;20.05;;;17.98;;
12631;SDS011;6381;45.748;12.106;2023-09-18T13:24:34;17.45;;;15.55;;
12631;SDS011;6381;45.748;12.106;2023-09-18T13:27:05;18.80;;;16.88;;
12631;SDS011;6381;45.748;12.106;2023-09-18T13:29:35;19.83;;;17.73;;
12631;SDS011;6381;45.748;12.106;2023-09-18T13:32:05;20.65;;;18.42;;
12631;SDS011;6381;45.748;12.106;2023-09-18T13:34:37;19.73;;;17.92;;
12631;SDS011;6381;45.748;12.106;2023-09-18T13:37:08;22.13;;;19.20;;
12631;SDS011;6381;45.748;12.106;2023-09-18T13:39:39;25.13;;;20.52;;
12631;SDS011;6381;45.748;12.106;2023-09-18T13:42:08;24.15;;;21.58;;
12631;SDS011;6381;45.748;12.106;2023-09-18T13:44:38;30.77;;;23.42;;
12631;SDS011;6381;45.748;12.106;2023-09-18T13:47:08;27.02;;;23.42;;
12631;SDS011;6381;45.748;12.106;2023-09-18T13:49:39;34.38;;;27.42;;
12631;SDS011;6381;45.748;12.106;2023-09-18T13:52:11;27.67;;;24.88;;
12631;SDS011;6381;45.748;12.106;2023-09-18T13:54:43;30.80;;;25.60;;
12631;SDS011;6381;45.748;12.106;2023-09-18T13:57:18;29.25;;;26.23;;
12631;SDS011;6381;45.748;12.106;2023-09-18T13:59:49;28.63;;;25.63;;
12631;SDS011;6381;45.748;12.106;2023-09-18T14:02:19;28.70;;;25.70;;
12631;SDS011;6381;45.748;12.106;2023-09-18T14:04:52;27.77;;;25.17;;
12631;SDS011;6381;45.748;12.106;2023-09-18T14:07:22;28.88;;;25.80;;
12631;SDS011;6381;45.748;12.106;2023-09-18T14:09:52;28.27;;;25.25;;
12631;SDS011;6381;45.748;12.106;2023-09-18T14:12:21;25.20;;;22.70;;
12631;SDS011;6381;45.748;12.106;2023-09-18T14:14:52;27.88;;;25.15;;
12631;SDS011;6381;45.748;12.106;2023-09-18T14:17:23;26.90;;;24.15;;
12631;SDS011;6381;45.748;12.106;2023-09-18T14:19:54;28.13;;;25.05;;
12631;SDS011;6381;45.748;12.106;2023-09-18T14:22:24;28.52;;;25.73;;
12631;SDS011;6381;45.748;12.106;2023-09-18T14:24:54;27.00;;;24.38;;
12631;SDS011;6381;45.748;12.106;2023-09-18T14:27:23;27.20;;;24.45;;
12631;SDS011;6381;45.748;12.106;2023-09-18T14:29:53;29.13;;;23.73;;
12631;SDS011;6381;45.748;12.106;2023-09-18T14:32:23;23.23;;;20.65;;
12631;SDS011;6381;45.748;12.106;2023-09-18T14:34:55;25.70;;;23.10;;
12631;SDS011;6381;45.748;12.106;2023-09-18T14:37:26;25.02;;;22.73;;
12631;SDS011;6381;45.748;12.106;2023-09-18T14:39:58;23.00;;;20.80;;
12631;SDS011;6381;45.748;12.106;2023-09-18T14:42:28;23.23;;;20.73;;
12631;SDS011;6381;45.748;12.106;2023-09-18T14:44:58;24.67;;;22.48;;
12631;SDS011;6381;45.748;12.106;2023-09-18T14:47:29;24.17;;;22.00;;
12631;SDS011;6381;45.748;12.106;2023-09-18T14:50:01;25.38;;;22.98;;
12631;SDS011;6381;45.748;12.106;2023-09-18T14:52:31;23.02;;;20.63;;